Time;durP1;ratioP1;P1;durP2;ratioP2;P2;SDS_P1;SDS_P2;PMS_P1;PMS_P2;Temp;Humidity;BMP_temperature;BMP_pressure;BME280_temperature;BME280_humidity;BME280_pressure;Samples;Min_cycle;Max_cycle;Signal;HPM_P1;HPM_P2
2022/02/14 00:00:18;;;;;;;19.23;11.30;;;103.10;2227.20;;;;;;5069676;28;20035;-74
2022/02/14 00:02:45;;;;;;;26.00;13.60;;;103.10;2227.20;;;;;;5059067;28;20028;-74
2022/02/14 00:05:11;;;;;;;19.83;11.70;;;103.00;2227.20;;;;;;5075001;28;20534;-74
2022/02/14 00:07:37;;;;;;;19.30;11.85;;;103.00;2227.20;;;;;;5071617;28;20091;-75
2022/02/14 00:10:04;;;;;;;25.58;15.13;;;103.00;2227.20;;;;;;5070581;28;20032;-74
2022/02/14 00:12:29;;;;;;;19.92;11.38;;;103.00;2227.20;;;;;;5071210;28;20036;-75
2022/02/14 00:14:55;;;;;;;24.20;13.15;;;102.90;2227.20;;;;;;5073816;28;20426;-74
2022/02/14 00:17:21;;;;;;;20.98;12.50;;;103.00;2227.20;;;;;;5071444;28;20420;-73
2022/02/14 00:19:50;;;;;;;25.42;13.10;;;102.90;2227.20;;;;;;5072659;28;20031;-74
2022/02/14 00:22:21;;;;;;;19.52;11.60;;;102.90;2227.20;;;;;;5071661;28;20021;-74
2022/02/14 00:24:54;;;;;;;20.40;13.65;;;102.90;2227.20;;;;;;5072290;28;20036;-74
2022/02/14 00:27:21;;;;;;;24.67;14.63;;;103.00;2227.20;;;;;;5072877;28;20037;-73
2022/02/14 00:29:48;;;;;;;24.33;12.75;;;103.00;2227.20;;;;;;5071812;28;20054;-73
2022/02/14 00:32:15;;;;;;;23.42;13.32;;;103.00;2227.20;;;;;;5071468;28;20103;-74
2022/02/14 00:34:41;;;;;;;20.90;12.77;;;103.00;2227.20;;;;;;5073139;28;20032;-74
2022/02/14 00:37:07;;;;;;;23.10;13.93;;;103.00;2227.20;;;;;;5072794;28;20905;-74
2022/02/14 00:39:33;;;;;;;21.30;13.40;;;103.00;2227.20;;;;;;5071239;28;20376;-74
2022/02/14 00:41:58;;;;;;;24.45;13.20;;;103.00;2227.20;;;;;;5072265;28;20031;-74
2022/02/14 00:44:24;;;;;;;19.95;13.80;;;103.00;2227.20;;;;;;5073146;28;20095;-73
2022/02/14 00:46:50;;;;;;;27.88;15.48;;;103.00;2227.20;;;;;;5072577;28;20032;-73
2022/02/14 00:49:16;;;;;;;31.45;15.27;;;103.00;2227.20;;;;;;5071620;28;20029;-73
2022/02/14 00:51:42;;;;;;;33.55;16.23;;;103.00;2227.20;;;;;;5066347;28;20383;-74
2022/02/14 00:54:08;;;;;;;34.53;17.95;;;103.00;2227.20;;;;;;5072152;28;20043;-74
2022/02/14 00:56:34;;;;;;;30.08;15.00;;;103.00;2227.20;;;;;;5070875;28;20040;-74
2022/02/14 00:59:00;;;;;;;27.67;14.05;;;103.00;2227.20;;;;;;5071457;28;20534;-75
2022/02/14 01:01:28;;;;;;;28.00;15.43;;;103.00;2227.20;;;;;;5072204;28;20020;-75
2022/02/14 01:03:54;;;;;;;28.17;14.52;;;103.00;2227.20;;;;;;5071933;28;20150;-73
2022/02/14 01:06:20;;;;;;;28.35;14.85;;;103.00;2227.20;;;;;;5072504;28;20099;-73
2022/02/14 01:08:45;;;;;;;31.95;16.23;;;103.00;2227.20;;;;;;5071953;28;20119;-73
2022/02/14 01:11:11;;;;;;;31.48;16.30;;;103.00;2227.20;;;;;;5072199;28;20043;-74
2022/02/14 01:13:37;;;;;;;23.08;15.57;;;103.00;2227.20;;;;;;5071971;28;20025;-74
2022/02/14 01:16:04;;;;;;;27.23;15.50;;;103.00;2227.20;;;;;;5071765;28;20056;-73
2022/02/14 01:18:29;;;;;;;31.02;13.90;;;102.90;2227.20;;;;;;5071711;28;20025;-74
2022/02/14 01:20:55;;;;;;;20.75;14.18;;;102.90;2227.20;;;;;;5071745;28;20383;-74
2022/02/14 01:23:21;;;;;;;25.00;12.77;;;102.90;2227.20;;;;;;5072349;28;20444;-74
2022/02/14 01:25:47;;;;;;;26.92;14.13;;;102.90;2227.20;;;;;;5071785;28;20424;-74
2022/02/14 01:28:12;;;;;;;23.50;13.57;;;102.90;2227.20;;;;;;5074477;28;20044;-73
2022/02/14 01:30:38;;;;;;;23.75;14.60;;;102.90;2227.20;;;;;;5069706;28;20028;-75
2022/02/14 01:33:04;;;;;;;23.17;13.93;;;102.90;2227.20;;;;;;5072000;28;20025;-73
2022/02/14 01:35:30;;;;;;;22.95;12.88;;;102.90;2227.20;;;;;;5070235;28;20028;-73
2022/02/14 01:37:56;;;;;;;32.13;15.00;;;102.80;2227.20;;;;;;5071442;28;20032;-73
2022/02/14 01:40:21;;;;;;;22.17;12.15;;;102.80;2227.20;;;;;;5071400;28;20024;-73
2022/02/14 01:42:47;;;;;;;22.85;13.73;;;102.80;2227.20;;;;;;5071909;28;20020;-73
2022/02/14 01:45:13;;;;;;;21.10;12.25;;;102.80;2227.20;;;;;;5071221;28;20108;-73
2022/02/14 01:47:40;;;;;;;23.73;14.32;;;102.80;2227.20;;;;;;5070254;28;20048;-73
2022/02/14 01:50:08;;;;;;;28.77;15.15;;;102.80;2227.20;;;;;;5069287;28;20035;-73
2022/02/14 01:52:35;;;;;;;30.13;15.18;;;102.70;2227.20;;;;;;5071102;28;20028;-73
2022/02/14 01:55:03;;;;;;;26.52;15.10;;;102.80;2227.20;;;;;;5071665;28;20020;-73
2022/02/14 01:57:29;;;;;;;23.60;13.63;;;102.80;2227.20;;;;;;5069791;28;20071;-73
2022/02/14 01:59:57;;;;;;;23.48;13.32;;;102.80;2227.20;;;;;;5071434;28;20468;-73
2022/02/14 02:02:24;;;;;;;19.98;12.88;;;102.70;2227.20;;;;;;5070594;28;21581;-73
2022/02/14 02:04:49;;;;;;;20.30;12.25;;;102.80;2227.20;;;;;;5071651;28;20463;-73
2022/02/14 02:07:16;;;;;;;20.33;11.75;;;102.70;2227.20;;;;;;5071161;28;20032;-74
2022/02/14 02:09:43;;;;;;;19.85;12.05;;;102.80;2227.20;;;;;;5071396;28;20025;-74
2022/02/14 02:12:26;;;;;;;19.15;10.90;;;102.70;2227.20;;;;;;5078361;28;20071;-74
2022/02/14 02:15:00;;;;;;;20.83;12.25;;;102.70;2227.20;;;;;;5060743;28;20035;-75
2022/02/14 02:17:33;;;;;;;18.20;12.52;;;102.70;2227.20;;;;;;5071332;28;20024;-74
2022/02/14 02:20:00;;;;;;;22.08;11.90;;;102.70;2227.20;;;;;;5069710;28;20036;-74
2022/02/14 02:22:26;;;;;;;19.25;12.32;;;102.70;2227.20;;;;;;5069645;28;20476;-74
2022/02/14 02:24:57;;;;;;;25.02;13.65;;;102.70;2227.20;;;;;;5071275;28;20044;-74
2022/02/14 02:27:25;;;;;;;21.77;11.93;;;102.70;2227.20;;;;;;5070842;28;20114;-74
2022/02/14 02:30:03;;;;;;;23.95;13.10;;;102.70;2227.20;;;;;;5071595;28;20028;-74
2022/02/14 02:32:31;;;;;;;26.02;14.75;;;102.70;2227.20;;;;;;5069485;28;20387;-75
2022/02/14 02:34:57;;;;;;;21.15;13.70;;;102.70;2227.20;;;;;;5070938;28;20059;-74
2022/02/14 02:37:23;;;;;;;22.80;13.95;;;102.70;2227.20;;;;;;5070096;28;20020;-74
2022/02/14 02:39:49;;;;;;;22.92;15.02;;;102.70;2227.20;;;;;;5070822;28;20024;-74
2022/02/14 02:42:18;;;;;;;27.42;13.27;;;102.80;2227.20;;;;;;5069987;28;20111;-74
2022/02/14 02:44:45;;;;;;;24.83;13.40;;;102.80;2227.20;;;;;;5070660;28;20112;-75
2022/02/14 02:47:14;;;;;;;23.05;13.48;;;102.80;2227.20;;;;;;5069424;28;20070;-75
2022/02/14 02:49:40;;;;;;;19.15;13.73;;;102.80;2227.20;;;;;;5070012;28;20016;-75
2022/02/14 02:52:08;;;;;;;20.00;13.23;;;102.70;2227.20;;;;;;5069871;28;20056;-74
2022/02/14 02:54:34;;;;;;;22.50;14.55;;;102.70;2227.20;;;;;;5068283;28;20115;-74
2022/02/14 02:57:01;;;;;;;24.15;13.68;;;102.70;2227.20;;;;;;5068553;28;20033;-75
2022/02/14 02:59:28;;;;;;;20.75;13.75;;;102.70;2227.20;;;;;;5068417;28;20024;-75
2022/02/14 03:01:54;;;;;;;22.08;12.98;;;102.70;2227.20;;;;;;5079410;28;20020;-76
2022/02/14 03:04:21;;;;;;;22.65;13.38;;;102.70;2227.20;;;;;;5095197;28;20020;-74
2022/02/14 03:06:47;;;;;;;24.08;14.50;;;102.70;2227.20;;;;;;5094881;28;20101;-75
2022/02/14 03:09:14;;;;;;;27.48;15.75;;;102.70;2227.20;;;;;;5085335;28;20028;-75
2022/02/14 03:11:43;;;;;;;26.38;14.48;;;102.70;2227.20;;;;;;5074382;28;20017;-75
2022/02/14 03:14:09;;;;;;;19.60;11.93;;;102.60;2227.20;;;;;;5074936;28;20070;-74
2022/02/14 03:16:35;;;;;;;26.30;13.35;;;102.70;2227.20;;;;;;5074322;28;20078;-75
2022/02/14 03:19:01;;;;;;;22.73;14.25;;;102.60;2227.20;;;;;;5072988;28;20425;-73
2022/02/14 03:21:26;;;;;;;20.10;12.90;;;102.60;2227.20;;;;;;5072642;28;20013;-73
2022/02/14 03:23:53;;;;;;;21.88;14.10;;;102.60;2227.20;;;;;;5074135;28;20032;-74
2022/02/14 03:26:20;;;;;;;24.80;15.55;;;102.60;2227.20;;;;;;5074386;28;20044;-73
2022/02/14 03:28:47;;;;;;;21.02;13.25;;;102.60;2227.20;;;;;;5072797;28;20029;-73
2022/02/14 03:31:13;;;;;;;19.35;12.38;;;102.60;2227.20;;;;;;5074307;28;20061;-73
2022/02/14 03:33:40;;;;;;;22.67;14.38;;;102.60;2227.20;;;;;;5072731;28;20058;-74
2022/02/14 03:36:07;;;;;;;23.92;13.13;;;102.60;2227.20;;;;;;5074246;28;20031;-74
2022/02/14 03:38:34;;;;;;;24.02;15.05;;;102.60;2227.20;;;;;;5072490;28;20021;-74
2022/02/14 03:40:59;;;;;;;19.15;13.13;;;102.60;2227.20;;;;;;5074328;28;20094;-74
2022/02/14 03:43:25;;;;;;;20.55;13.27;;;102.60;2227.20;;;;;;5074016;28;20471;-74
2022/02/14 03:45:51;;;;;;;21.85;12.90;;;102.60;2227.20;;;;;;5072814;28;20044;-73
2022/02/14 03:48:17;;;;;;;21.48;12.88;;;102.50;2227.20;;;;;;5074165;28;20020;-73
2022/02/14 03:50:43;;;;;;;21.88;14.13;;;102.50;2227.20;;;;;;5073747;28;20074;-74
2022/02/14 03:53:09;;;;;;;24.35;11.82;;;102.50;2227.20;;;;;;5073706;28;20086;-74
2022/02/14 03:55:34;;;;;;;24.67;12.32;;;102.50;2227.20;;;;;;5072389;28;20046;-74
2022/02/14 03:58:00;;;;;;;21.13;13.63;;;102.50;2227.20;;;;;;5073888;28;20108;-74
2022/02/14 04:00:27;;;;;;;19.02;10.85;;;102.50;2227.20;;;;;;5073442;28;20032;-73
2022/02/14 04:02:53;;;;;;;25.80;15.45;;;102.50;2227.20;;;;;;5073830;28;20021;-73
2022/02/14 04:05:20;;;;;;;21.55;12.93;;;102.50;2227.20;;;;;;5072199;28;20031;-74
2022/02/14 04:07:47;;;;;;;22.52;11.73;;;102.50;2227.20;;;;;;5072485;28;20379;-73
2022/02/14 04:10:15;;;;;;;16.88;12.05;;;102.40;2227.20;;;;;;5073358;28;20021;-74
2022/02/14 04:12:41;;;;;;;20.85;12.95;;;102.40;2227.20;;;;;;5072529;28;20028;-73
2022/02/14 04:15:08;;;;;;;22.92;12.43;;;102.40;2227.20;;;;;;5073800;28;20028;-74
2022/02/14 04:17:35;;;;;;;21.75;12.38;;;102.40;2227.20;;;;;;5071920;28;20035;-74
2022/02/14 04:20:01;;;;;;;25.92;14.70;;;102.40;2227.20;;;;;;5072213;28;20052;-74
2022/02/14 04:22:27;;;;;;;28.40;15.65;;;102.40;2227.20;;;;;;5073204;28;20078;-74
2022/02/14 04:24:53;;;;;;;31.55;17.17;;;77.70;2227.20;;;;;;5073363;28;20044;-73
2022/02/14 04:27:19;;;;;;;25.33;14.73;;;77.70;2227.20;;;;;;5072810;28;20036;-74
2022/02/14 04:29:45;;;;;;;23.63;13.55;;;77.60;2227.20;;;;;;5073365;28;20028;-74
2022/02/14 04:32:10;;;;;;;23.88;13.75;;;77.60;2227.20;;;;;;5072345;28;20099;-74
2022/02/14 04:34:36;;;;;;;21.38;12.32;;;77.60;2227.20;;;;;;5073391;28;20021;-73
2022/02/14 04:37:02;;;;;;;26.30;13.65;;;77.60;2227.20;;;;;;5073211;28;20024;-73
2022/02/14 04:39:28;;;;;;;20.23;12.38;;;77.50;2227.20;;;;;;5072763;28;20032;-73
2022/02/14 04:41:54;;;;;;;21.70;12.48;;;77.50;2227.20;;;;;;5073479;28;20536;-73
2022/02/14 04:44:20;;;;;;;22.20;13.70;;;77.40;2227.20;;;;;;5072861;28;20479;-74
2022/02/14 04:46:47;;;;;;;16.98;11.40;;;77.40;2227.20;;;;;;5073009;28;20060;-73
2022/02/14 04:49:14;;;;;;;24.27;13.55;;;77.30;2227.20;;;;;;5071491;28;20029;-73
2022/02/14 04:51:41;;;;;;;26.92;14.82;;;77.20;2227.20;;;;;;5071688;28;20025;-74
2022/02/14 04:54:06;;;;;;;32.65;17.98;;;77.10;2227.20;;;;;;5070579;28;20036;-73
2022/02/14 04:56:32;;;;;;;32.55;17.75;;;77.10;2227.20;;;;;;5072827;28;20036;-73
2022/02/14 04:58:58;;;;;;;24.65;15.20;;;77.10;2227.20;;;;;;5072480;28;20162;-73
2022/02/14 05:01:24;;;;;;;32.80;16.45;;;77.10;2227.20;;;;;;5072370;28;20012;-73
2022/02/14 05:03:51;;;;;;;23.35;13.88;;;77.10;2227.20;;;;;;5087786;28;20475;-73
2022/02/14 05:06:17;;;;;;;25.73;16.52;;;77.00;2227.20;;;;;;5070194;28;20039;-73
2022/02/14 05:08:43;;;;;;;30.60;15.35;;;77.00;2227.20;;;;;;5071906;28;20021;-73
2022/02/14 05:11:09;;;;;;;23.08;15.13;;;77.00;2227.20;;;;;;5071167;28;20033;-74
2022/02/14 05:13:39;;;;;;;25.55;14.30;;;77.00;2227.20;;;;;;5071795;28;20016;-73
2022/02/14 05:16:05;;;;;;;24.58;14.27;;;77.00;2227.20;;;;;;5069933;28;20027;-73
2022/02/14 05:18:31;;;;;;;23.13;13.68;;;77.00;2227.20;;;;;;5071569;28;20021;-73
2022/02/14 05:20:56;;;;;;;23.63;13.45;;;77.00;2227.20;;;;;;5070317;28;20537;-73
2022/02/14 05:23:23;;;;;;;24.63;14.30;;;77.00;2227.20;;;;;;5070170;28;20388;-73
2022/02/14 05:25:49;;;;;;;21.50;12.98;;;77.50;2227.20;;;;;;5068961;28;20056;-73
2022/02/14 05:28:15;;;;;;;26.27;14.70;;;77.10;2227.20;;;;;;5070664;28;20108;-72
2022/02/14 05:30:40;;;;;;;29.05;15.77;;;77.10;2227.20;;;;;;5070850;28;20727;-73
2022/02/14 05:33:06;;;;;;;32.47;13.95;;;77.10;2227.20;;;;;;5071451;28;20033;-72
2022/02/14 05:35:32;;;;;;;28.10;16.45;;;77.20;2227.20;;;;;;5071890;28;20025;-73
2022/02/14 05:37:59;;;;;;;22.17;13.20;;;77.20;2227.20;;;;;;5070365;28;20025;-73
2022/02/14 05:40:26;;;;;;;22.17;12.57;;;77.20;2227.20;;;;;;5072147;28;20082;-74
2022/02/14 05:42:52;;;;;;;26.08;13.30;;;77.20;2227.20;;;;;;5071291;28;20028;-73
2022/02/14 05:45:18;;;;;;;21.42;14.52;;;77.20;2227.20;;;;;;5070764;28;20021;-73
2022/02/14 05:47:43;;;;;;;24.15;14.85;;;77.20;2227.20;;;;;;5071457;28;20036;-73
2022/02/14 05:50:10;;;;;;;20.92;13.23;;;77.20;2227.20;;;;;;5070452;28;20036;-73
2022/02/14 05:52:39;;;;;;;22.08;12.98;;;77.20;2227.20;;;;;;5071393;28;20046;-74
2022/02/14 05:55:07;;;;;;;20.42;12.98;;;77.20;2227.20;;;;;;5069890;28;20029;-73
2022/02/14 05:57:33;;;;;;;25.13;15.73;;;77.20;2227.20;;;;;;5070355;28;20050;-74
2022/02/14 05:59:59;;;;;;;25.35;17.13;;;77.20;2227.20;;;;;;5070132;28;20028;-73
2022/02/14 06:02:25;;;;;;;28.20;14.70;;;77.20;2227.20;;;;;;5070166;28;20028;-73
2022/02/14 06:04:51;;;;;;;25.67;12.85;;;77.20;2227.20;;;;;;5070924;28;20043;-74
2022/02/14 06:07:17;;;;;;;32.60;16.73;;;77.20;2227.20;;;;;;5070093;28;20119;-73
2022/02/14 06:09:43;;;;;;;33.15;17.17;;;77.20;2227.20;;;;;;5069257;28;20128;-73
2022/02/14 06:12:09;;;;;;;26.08;14.55;;;77.20;2227.20;;;;;;5071206;28;20025;-73
2022/02/14 06:14:35;;;;;;;27.13;14.20;;;77.30;2227.20;;;;;;5069544;28;20537;-72
2022/02/14 06:17:00;;;;;;;23.73;14.73;;;77.30;2227.20;;;;;;5069788;28;20025;-73
2022/02/14 06:19:26;;;;;;;36.35;20.17;;;77.40;2227.20;;;;;;5070528;28;20067;-73
2022/02/14 06:21:52;;;;;;;24.08;16.17;;;77.40;2227.20;;;;;;5069765;28;20029;-73
2022/02/14 06:24:18;;;;;;;28.10;16.98;;;77.50;2227.20;;;;;;5070424;28;20494;-73
2022/02/14 06:26:44;;;;;;;28.40;16.92;;;77.50;2227.20;;;;;;5070146;28;20056;-73
2022/02/14 06:29:10;;;;;;;24.50;15.57;;;77.60;2227.20;;;;;;5070935;28;20402;-73
2022/02/14 06:31:36;;;;;;;30.67;19.30;;;77.70;2227.20;;;;;;5068809;28;20028;-73
2022/02/14 06:34:02;;;;;;;29.10;18.58;;;102.40;2227.20;;;;;;5069193;28;20067;-73
2022/02/14 06:36:29;;;;;;;26.98;16.40;;;102.50;2227.20;;;;;;5068480;28;20148;-73
2022/02/14 06:38:56;;;;;;;31.02;17.45;;;102.50;2227.20;;;;;;5069268;28;20031;-73
2022/02/14 06:41:23;;;;;;;26.60;14.95;;;102.60;2227.20;;;;;;5067099;28;20383;-73
2022/02/14 06:43:50;;;;;;;31.00;18.02;;;102.60;2227.20;;;;;;5068865;28;20024;-73
2022/02/14 06:46:16;;;;;;;30.35;18.08;;;102.70;2227.20;;;;;;5070702;28;20025;-73
2022/02/14 06:48:42;;;;;;;30.92;17.73;;;102.80;2227.20;;;;;;5070197;28;20031;-72
2022/02/14 06:51:09;;;;;;;25.40;16.63;;;102.90;2227.20;;;;;;5062915;28;20032;-73
2022/02/14 06:53:35;;;;;;;31.98;17.25;;;102.90;2227.20;;;;;;5068384;28;20091;-73
2022/02/14 06:56:05;;;;;;;26.65;16.13;;;102.90;2227.20;;;;;;5069425;28;20104;-73
2022/02/14 06:58:33;;;;;;;22.05;15.55;;;103.10;2227.20;;;;;;5075285;28;20434;-73
2022/02/14 07:00:58;;;;;;;30.20;16.45;;;103.10;2227.20;;;;;;5073991;28;20776;-74
2022/02/14 07:03:24;;;;;;;29.08;15.93;;;103.20;2227.20;;;;;;5079561;28;20040;-73
2022/02/14 07:05:50;;;;;;;23.30;15.43;;;103.30;2227.20;;;;;;5070424;28;20028;-73
2022/02/14 07:08:15;;;;;;;25.13;16.35;;;103.30;2227.20;;;;;;5069552;28;20024;-74
2022/02/14 07:10:41;;;;;;;25.83;15.27;;;128.00;2252.80;;;;;;5070276;28;20544;-74
2022/02/14 07:13:07;;;;;;;27.90;17.13;;;128.10;2252.80;;;;;;5069456;28;20024;-74
2022/02/14 07:15:33;;;;;;;31.90;17.80;;;128.10;2252.80;;;;;;5069214;28;20526;-74
2022/02/14 07:18:04;;;;;;;27.80;17.83;;;128.20;2252.80;;;;;;5066853;28;20032;-73
2022/02/14 07:20:30;;;;;;;31.15;18.83;;;128.30;2252.80;;;;;;5068763;28;20024;-73
2022/02/14 07:22:57;;;;;;;29.02;19.45;;;128.40;2252.80;;;;;;5070326;28;20115;-74
2022/02/14 07:25:22;;;;;;;27.17;16.92;;;128.50;2252.80;;;;;;5068558;28;20070;-75
2022/02/14 07:27:48;;;;;;;31.13;18.67;;;128.60;2252.80;;;;;;5070223;28;20480;-76
2022/02/14 07:30:14;;;;;;;21.55;13.98;;;128.70;2252.80;;;;;;5068493;28;20060;-75
2022/02/14 07:32:41;;;;;;;24.90;15.23;;;128.80;2252.80;;;;;;5070171;28;20059;-74
2022/02/14 07:35:07;;;;;;;24.50;14.30;;;128.90;2252.80;;;;;;5069666;28;20479;-74
2022/02/14 07:37:33;;;;;;;24.98;14.10;;;153.60;2252.80;;;;;;5069526;28;20398;-74
2022/02/14 07:40:00;;;;;;;23.40;15.68;;;153.70;2252.80;;;;;;5069908;28;20498;-74
2022/02/14 07:42:27;;;;;;;27.45;16.55;;;153.90;2252.80;;;;;;5068318;28;20036;-75
2022/02/14 07:44:53;;;;;;;23.52;15.35;;;154.10;2252.80;;;;;;5069800;28;20524;-74
2022/02/14 07:47:19;;;;;;;26.77;15.40;;;154.20;2252.80;;;;;;5069217;28;20043;-74
2022/02/14 07:49:44;;;;;;;20.42;14.38;;;154.30;2252.80;;;;;;5069103;28;20036;-74
2022/02/14 07:52:10;;;;;;;23.35;14.57;;;154.40;2252.80;;;;;;5072633;28;20037;-73
2022/02/14 07:54:36;;;;;;;26.27;16.17;;;154.50;2252.80;;;;;;5071945;28;20043;-73
2022/02/14 07:57:02;;;;;;;27.88;15.77;;;179.20;2252.80;;;;;;5071840;28;20694;-74
2022/02/14 07:59:28;;;;;;;28.10;16.35;;;179.30;2252.80;;;;;;5073248;28;20017;-74
2022/02/14 08:01:54;;;;;;;23.95;16.48;;;179.40;2252.80;;;;;;5071508;28;20493;-74
2022/02/14 08:04:20;;;;;;;26.90;18.13;;;179.50;2252.80;;;;;;5073346;28;20099;-75
2022/02/14 08:06:46;;;;;;;28.58;16.92;;;179.70;2252.80;;;;;;5072537;28;20392;-74
2022/02/14 08:09:11;;;;;;;29.15;18.10;;;179.80;2252.80;;;;;;5070648;28;20182;-74
2022/02/14 08:11:37;;;;;;;25.27;14.32;;;179.90;2252.80;;;;;;5072322;28;20115;-74
2022/02/14 08:14:03;;;;;;;28.10;15.57;;;180.00;2252.80;;;;;;5071917;28;20021;-74
2022/02/14 08:16:31;;;;;;;25.60;15.85;;;180.10;2252.80;;;;;;5070499;28;20028;-74
2022/02/14 08:18:59;;;;;;;26.92;15.20;;;204.90;2252.80;;;;;;5071944;28;20388;-74
2022/02/14 08:21:26;;;;;;;23.92;15.80;;;205.00;2252.80;;;;;;5068705;28;20029;-74
2022/02/14 08:23:52;;;;;;;32.50;17.33;;;205.30;2252.80;;;;;;5072892;28;20479;-75
2022/02/14 08:26:18;;;;;;;28.65;16.35;;;205.50;2252.80;;;;;;5069821;28;20061;-74
2022/02/14 08:28:44;;;;;;;29.58;17.52;;;205.60;2252.80;;;;;;5072562;28;20491;-74
2022/02/14 08:31:10;;;;;;;31.75;16.30;;;230.40;2252.80;;;;;;5071417;28;20394;-74
2022/02/14 08:33:36;;;;;;;21.05;14.32;;;230.60;2252.80;;;;;;5072097;28;20141;-73
2022/02/14 08:36:02;;;;;;;25.10;14.23;;;230.70;2252.80;;;;;;5072924;28;20020;-74
2022/02/14 08:38:28;;;;;;;25.35;14.70;;;230.70;2252.80;;;;;;5071863;28;20072;-73
2022/02/14 08:40:53;;;;;;;25.52;15.73;;;230.90;2252.80;;;;;;5072773;28;20498;-73
2022/02/14 08:43:19;;;;;;;23.58;15.73;;;231.10;2252.80;;;;;;5071928;28;20455;-73
2022/02/14 08:45:47;;;;;;;23.83;16.02;;;231.30;2252.80;;;;;;5072386;28;20387;-75
2022/02/14 08:48:14;;;;;;;33.33;18.23;;;256.30;2252.80;;;;;;5072482;28;20021;-75
2022/02/14 08:50:41;;;;;;;38.40;19.02;;;256.40;2252.80;;;;;;5071506;28;20029;-74
2022/02/14 08:53:08;;;;;;;36.45;21.42;;;256.40;2252.80;;;;;;5072213;28;20021;-74
2022/02/14 08:55:34;;;;;;;25.33;16.08;;;256.50;2252.80;;;;;;5072763;28;20060;-74
2022/02/14 08:58:01;;;;;;;26.52;13.90;;;256.90;2252.80;;;;;;5072404;28;20491;-74
2022/02/14 09:00:27;;;;;;;23.33;14.38;;;281.60;2278.40;;;;;;5072255;28;20539;-75
2022/02/14 09:02:52;;;;;;;25.92;15.13;;;281.80;2278.40;;;;;;5070796;28;20106;-74
2022/02/14 09:05:18;;;;;;;26.33;16.95;;;282.00;2278.40;;;;;;5072192;28;20048;-74
2022/02/14 09:07:44;;;;;;;23.65;16.05;;;282.10;2278.40;;;;;;5055860;28;20111;-74
2022/02/14 09:10:11;;;;;;;26.92;16.45;;;282.10;2278.40;;;;;;5053087;28;20112;-74
2022/02/14 09:12:37;;;;;;;20.10;15.57;;;282.50;2278.40;;;;;;5071698;28;20028;-75
2022/02/14 09:15:04;;;;;;;22.85;15.15;;;307.20;2304.00;;;;;;5070099;28;20036;-74
2022/02/14 09:17:30;;;;;;;28.30;16.40;;;307.50;2304.00;;;;;;5070895;28;20025;-74
2022/02/14 09:19:55;;;;;;;25.02;15.10;;;307.70;2304.00;;;;;;5071836;28;20107;-75
2022/02/14 09:22:21;;;;;;;23.35;16.17;;;308.00;2304.00;;;;;;5067595;28;20426;-74
2022/02/14 09:24:48;;;;;;;22.08;15.43;;;307.70;2304.00;;;;;;5071596;28;20125;-74
2022/02/14 09:27:14;;;;;;;23.27;16.55;;;307.90;2304.00;;;;;;5070820;28;20031;-74
2022/02/14 09:29:40;;;;;;;26.52;16.45;;;307.70;2304.00;;;;;;5071574;28;20024;-75
2022/02/14 09:32:06;;;;;;;25.65;15.48;;;308.10;2304.00;;;;;;5070754;28;20031;-73
2022/02/14 09:34:32;;;;;;;23.85;16.88;;;332.80;2329.60;;;;;;5070153;28;20033;-75
2022/02/14 09:36:58;;;;;;;27.60;17.85;;;333.00;2329.60;;;;;;5067955;28;20024;-75
2022/02/14 09:39:30;;;;;;;34.33;17.80;;;333.20;2329.60;;;;;;5071144;28;20024;-74
2022/02/14 09:42:00;;;;;;;25.48;17.50;;;333.10;2329.60;;;;;;5071716;28;20021;-74
2022/02/14 09:44:27;;;;;;;24.77;15.90;;;333.50;2304.00;;;;;;5071570;28;20024;-75
2022/02/14 09:46:54;;;;;;;19.15;14.60;;;333.70;2227.20;;;;;;5068961;28;20825;-74
2022/02/14 09:49:20;;;;;;;29.17;17.13;;;333.70;2227.20;;;;;;5069777;28;20043;-74
2022/02/14 09:51:48;;;;;;;24.05;15.65;;;358.70;2150.40;;;;;;5070470;28;20095;-74
2022/02/14 09:54:14;;;;;;;26.95;16.20;;;358.70;2099.20;;;;;;5067748;28;20055;-74
2022/02/14 09:56:41;;;;;;;25.17;15.70;;;358.80;2124.80;;;;;;5070371;28;20067;-74
2022/02/14 09:59:06;;;;;;;22.55;15.63;;;358.70;2150.40;;;;;;5069673;28;20029;-73
2022/02/14 10:01:33;;;;;;;24.08;16.10;;;358.90;2073.60;;;;;;5068925;28;20425;-74
2022/02/14 10:04:00;;;;;;;26.23;17.85;;;358.90;2073.60;;;;;;5068766;28;20040;-74
2022/02/14 10:06:30;;;;;;;22.58;15.93;;;359.10;2048.00;;;;;;5069615;28;20073;-74
2022/02/14 10:09:11;;;;;;;26.15;15.43;;;384.20;1920.00;;;;;;5070643;28;20081;-74
2022/02/14 10:11:42;;;;;;;22.83;15.18;;;384.30;1894.40;;;;;;5069407;28;20103;-74
2022/02/14 10:14:19;;;;;;;25.05;17.77;;;384.40;1843.20;;;;;;5070861;28;20426;-74
2022/02/14 10:17:07;;;;;;;26.25;16.85;;;384.40;1843.20;;;;;;5070109;28;20039;-74
2022/02/14 10:19:45;;;;;;;26.77;18.02;;;384.50;1843.20;;;;;;5066387;28;20052;-73
2022/02/14 10:22:12;;;;;;;27.92;17.50;;;384.90;1817.60;;;;;;5068338;28;20025;-75
2022/02/14 10:24:42;;;;;;;28.20;20.80;;;409.60;1817.60;;;;;;5069763;28;20051;-75
2022/02/14 10:27:09;;;;;;;20.40;16.05;;;410.20;1715.20;;;;;;5069698;28;20108;-76
2022/02/14 10:29:36;;;;;;;25.65;16.75;;;410.30;1715.20;;;;;;5070612;28;20100;-74
2022/02/14 10:32:08;;;;;;;27.42;18.25;;;410.30;1689.60;;;;;;5070909;28;20031;-77
2022/02/14 10:34:40;;;;;;;30.42;20.38;;;410.50;1664.00;;;;;;5069921;28;20024;-73
2022/02/14 10:37:07;;;;;;;24.75;16.88;;;435.20;1638.40;;;;;;5069244;28;20036;-77
2022/02/14 10:39:33;;;;;;;26.42;17.17;;;435.50;1612.80;;;;;;5070738;28;20052;-74
2022/02/14 10:42:19;;;;;;;25.48;17.73;;;435.70;1587.20;;;;;;5068513;28;20029;-76
2022/02/14 10:47:35;;;;;;;24.15;15.95;;;435.80;1587.20;;;;;;5065840;28;20109;-75
2022/02/14 10:50:05;;;;;;;28.98;17.10;;;435.70;1587.20;;;;;;5070035;28;20387;-75
2022/02/14 10:52:55;;;;;;;19.17;14.65;;;460.80;1587.20;;;;;;5070261;28;20078;-74
2022/02/14 10:55:42;;;;;;;21.17;15.07;;;461.00;1536.00;;;;;;5051489;28;20024;-75
2022/02/14 10:58:08;;;;;;;19.17;13.57;;;461.30;1510.40;;;;;;5074858;28;20025;-72
2022/02/14 11:00:36;;;;;;;18.73;14.88;;;461.30;1484.80;;;;;;5074049;28;20025;-73
2022/02/14 11:03:06;;;;;;;23.10;16.88;;;461.20;1510.40;;;;;;5074952;28;20074;-74
2022/02/14 11:05:33;;;;;;;24.85;15.40;;;461.50;1484.80;;;;;;5069758;28;20024;-72
2022/02/14 11:07:59;;;;;;;18.58;14.75;;;461.50;1484.80;;;;;;5064744;28;20024;-72
2022/02/14 11:10:26;;;;;;;21.88;16.67;;;461.60;1484.80;;;;;;5061992;28;20403;-71
2022/02/14 11:12:57;;;;;;;25.08;17.05;;;461.50;1484.80;;;;;;5068071;28;20103;-72
2022/02/14 11:15:24;;;;;;;26.33;17.02;;;461.70;1459.20;;;;;;5064869;28;20418;-74
2022/02/14 11:17:55;;;;;;;29.42;18.65;;;486.50;1459.20;;;;;;5067679;28;20075;-72
2022/02/14 11:20:21;;;;;;;25.77;17.20;;;486.90;1433.60;;;;;;5068877;28;20021;-73
2022/02/14 11:22:50;;;;;;;19.02;13.90;;;486.70;1433.60;;;;;;5068604;28;20412;-74
2022/02/14 11:25:56;;;;;;;17.80;14.07;;;486.60;1433.60;;;;;;5073400;28;20128;-74
2022/02/14 11:28:28;;;;;;;24.27;16.92;;;486.90;1408.00;;;;;;5071901;28;20044;-73
2022/02/14 11:31:17;;;;;;;20.10;14.63;;;486.60;1433.60;;;;;;5069695;28;20017;-72
2022/02/14 11:33:53;;;;;;;22.98;16.63;;;486.70;1408.00;;;;;;5069501;28;20021;-73
2022/02/14 11:36:19;;;;;;;;;;;487.00;1408.00;;;;;;5069163;28;20036;-72
2022/02/14 11:38:59;;;;;;;18.97;13.33;;;487.30;1356.80;;;;;;5068464;28;19912;-72
2022/02/14 11:41:35;;;;;;;33.53;19.65;;;512.00;1382.40;;;;;;5070429;28;20029;-74
2022/02/14 11:44:22;;;;;;;21.77;13.60;;;487.30;1356.80;;;;;;5072552;28;20051;-74
2022/02/14 11:46:53;;;;;;;24.48;15.68;;;512.40;1331.20;;;;;;5071830;28;20090;-75
2022/02/14 11:49:21;;;;;;;28.55;17.13;;;512.30;1331.20;;;;;;5073461;28;20029;-75
2022/02/14 11:51:50;;;;;;;25.27;12.98;;;512.80;1331.20;;;;;;5073192;28;20036;-72
2022/02/14 11:54:35;;;;;;;27.42;14.02;;;512.40;1305.60;;;;;;5072812;28;20044;-75
2022/02/14 11:57:10;;;;;;;18.58;13.25;;;512.50;1305.60;;;;;;5059245;28;20064;-72
2022/02/14 11:59:37;;;;;;;20.55;13.35;;;512.40;1305.60;;;;;;5069219;28;20115;-72
2022/02/14 12:02:04;;;;;;;15.82;11.82;;;487.30;1331.20;;;;;;5068605;28;20537;-72
2022/02/14 12:04:40;;;;;;;32.88;20.25;;;512.20;1331.20;;;;;;5068580;28;20029;-73